Time,TemperatureF,DewpointF,PressureIn,WindDirection,WindDirectionDegrees,WindSpeedMPH,WindSpeedGustMPH,Humidity,HourlyPrecipIn,Conditions,Clouds,dailyrainin,SoftwareType,DateUTC
2013-12-05 00:00:00,44.5,44.2,30.01,NE,55,0.0,0.0,99,0.00,,---,0.00,VWS V14.01,2013-12-05 05:00:00,
2013-12-05 00:01:00,44.5,44.2,30.01,NE,55,0.0,0.0,99,0.00,,---,0.00,VWS V14.01,2013-12-05 05:01:00,
2013-12-05 00:02:00,44.5,44.2,30.01,NE,55,0.0,0.0,99,0.00,,---,0.00,VWS V14.01,2013-12-05 05:02:00,
2013-12-05 00:05:00,44.5,44.2,30.01,NE,55,0.0,0.0,99,0.00,,---,0.00,VWS V14.01,2013-12-05 05:05:00,
2013-12-05 00:07:00,44.5,44.2,30.01,NE,55,0.0,0.0,99,0.00,,---,0.00,VWS V14.01,2013-12-05 05:07:00,
2013-12-05 00:10:00,44.5,44.2,30.01,NE,55,0.0,0.0,99,0.00,,---,0.00,VWS V14.01,2013-12-05 05:10:00,
2013-12-05 00:12:00,44.5,44.2,30.01,NE,55,0.0,1.0,99,0.00,,---,0.00,VWS V14.01,2013-12-05 05:12:00,
2013-12-05 00:15:00,44.5,44.2,30.01,NE,55,0.0,1.0,99,0.00,,---,0.00,VWS V14.01,2013-12-05 05:15:00,
2013-12-05 00:17:00,44.5,44.2,30.01,NE,55,0.0,2.0,99,0.00,,---,0.00,VWS V14.01,2013-12-05 05:17:00,
2013-12-05 00:20:00,44.5,44.2,30.01,NE,55,1.0,2.0,99,0.00,,---,0.00,VWS V14.01,2013-12-05 05:20:00,
2013-12-05 00:22:00,44.6,44.3,30.01,NE,55,0.0,1.0,99,0.00,,---,0.00,VWS V14.01,2013-12-05 05:22:00,
2013-12-05 00:25:00,44.6,44.3,30.01,NE,55,0.0,1.0,99,0.00,,---,0.00,VWS V14.01,2013-12-05 05:25:00,
2013-12-05 00:27:00,44.6,44.3,30.01,NE,55,0.0,0.0,99,0.00,,---,0.00,VWS V14.01,2013-12-05 05:27:00,
2013-12-05 00:30:00,44.6,44.3,30.01,NE,55,0.0,0.0,99,0.00,,---,0.00,VWS V14.01,2013-12-05 05:30:00,
2013-12-05 00:32:00,44.8,44.5,30.01,NE,55,0.0,0.0,99,0.00,,---,0.00,VWS V14.01,2013-12-05 05:32:00,
2013-12-05 00:35:00,44.8,44.5,30.01,NE,55,0.0,0.0,99,0.00,,---,0.00,VWS V14.01,2013-12-05 05:35:00,
2013-12-05 00:37:00,44.8,44.5,30.01,NE,55,0.0,0.0,99,0.00,,---,0.00,VWS V14.01,2013-12-05 05:37:00,
2013-12-05 00:40:00,44.8,44.5,30.01,NE,55,0.0,1.0,99,0.00,,---,0.00,VWS V14.01,2013-12-05 05:40:00,
2013-12-05 00:42:00,44.8,44.5,30.01,NE,55,0.0,1.0,99,0.00,,---,0.00,VWS V14.01,2013-12-05 05:42:00,
2013-12-05 00:45:00,44.9,44.6,30.01,NE,55,0.0,1.0,99,0.00,,---,0.00,VWS V14.01,2013-12-05 05:45:00,
2013-12-05 00:47:00,44.9,44.6,30.01,NE,55,0.0,0.0,99,0.00,,---,0.00,VWS V14.01,2013-12-05 05:47:00,
2013-12-05 00:50:00,44.9,44.6,30.01,NE,55,0.0,0.0,99,0.00,,---,0.00,VWS V14.01,2013-12-05 05:50:00,
2013-12-05 00:52:00,44.9,44.6,30.01,NE,55,0.0,0.0,99,0.00,,---,0.00,VWS V14.01,2013-12-05 05:52:00,
2013-12-05 00:55:00,45.1,44.8,30.01,NE,55,0.0,0.0,99,0.00,,---,0.00,VWS V14.01,2013-12-05 05:55:00,
2013-12-05 00:57:00,45.1,44.8,30.01,NE,55,0.0,0.0,99,0.00,,---,0.00,VWS V14.01,2013-12-05 05:57:00,
2013-12-05 01:00:00,45.1,44.8,30.01,NE,55,0.0,0.0,99,0.00,,---,0.00,VWS V14.01,2013-12-05 06:00:00,
2013-12-05 01:02:00,45.1,44.8,30.01,NE,55,0.0,0.0,99,0.00,,---,0.00,VWS V14.01,2013-12-05 06:02:00,
2013-12-05 01:05:00,45.1,44.8,30.01,NE,55,0.0,0.0,99,0.00,,---,0.00,VWS V14.01,2013-12-05 06:05:00,
2013-12-05 01:07:00,45.1,44.8,30.01,NE,55,0.0,0.0,99,0.00,,---,0.00,VWS V14.01,2013-12-05 06:07:00,
2013-12-05 01:10:00,45.1,44.8,30.01,NE,55,0.0,0.0,99,0.00,,---,0.00,VWS V14.01,2013-12-05 06:10:00,
2013-12-05 01:12:00,45.1,44.8,30.01,NE,55,1.0,1.0,99,0.00,,---,0.00,VWS V14.01,2013-12-05 06:12:00,
2013-12-05 01:15:00,45.1,44.8,30.00,NE,55,0.0,1.0,99,0.00,,---,0.00,VWS V14.01,2013-12-05 06:15:00,
2013-12-05 01:17:00,45.1,44.8,30.00,NE,55,0.0,0.0,99,0.00,,---,0.00,VWS V14.01,2013-12-05 06:17:00,
2013-12-05 01:20:00,45.1,44.8,30.00,NE,55,0.0,1.0,99,0.00,,---,0.00,VWS V14.01,2013-12-05 06:20:00,
2013-12-05 01:22:00,45.1,44.8,30.00,NE,55,0.0,0.0,99,0.00,,---,0.00,VWS V14.01,2013-12-05 06:22:00,
2013-12-05 01:25:00,44.9,44.4,30.00,NE,55,0.0,0.0,98,0.00,,---,0.00,VWS V14.01,2013-12-05 06:25:00,
2013-12-05 01:27:00,44.9,44.4,30.00,NE,55,0.0,1.0,98,0.00,,---,0.00,VWS V14.01,2013-12-05 06:27:00,
2013-12-05 01:30:00,44.9,44.4,30.00,NE,55,0.0,1.0,98,0.00,,---,0.00,VWS V14.01,2013-12-05 06:30:00,
2013-12-05 01:32:00,44.9,44.4,30.00,NE,55,0.0,0.0,98,0.00,,---,0.00,VWS V14.01,2013-12-05 06:32:00,
2013-12-05 01:35:00,44.8,44.3,30.00,NE,55,1.0,1.0,98,0.00,,---,0.00,VWS V14.01,2013-12-05 06:35:00,
2013-12-05 01:37:00,44.8,44.3,30.00,SW,232,0.0,2.0,98,0.00,,---,0.00,VWS V14.01,2013-12-05 06:37:00,
2013-12-05 01:40:00,44.6,44.1,30.00,SW,231,0.0,2.0,98,0.00,,---,0.00,VWS V14.01,2013-12-05 06:40:00,
2013-12-05 01:42:00,44.6,44.1,29.99,SW,232,0.0,0.0,98,0.00,,---,0.00,VWS V14.01,2013-12-05 06:42:00,
2013-12-05 01:45:00,44.5,44.0,29.99,SW,232,0.0,0.0,98,0.00,,---,0.00,VWS V14.01,2013-12-05 06:45:00,
2013-12-05 01:47:00,44.3,43.8,29.99,SW,232,0.0,0.0,98,0.00,,---,0.00,VWS V14.01,2013-12-05 06:47:00,
2013-12-05 01:50:00,44.3,43.8,29.99,SW,232,0.0,0.0,98,0.00,,---,0.00,VWS V14.01,2013-12-05 06:50:00,
2013-12-05 01:52:00,44.1,43.6,29.99,SW,232,0.0,0.0,98,0.00,,---,0.00,VWS V14.01,2013-12-05 06:52:00,
2013-12-05 01:55:00,44.1,43.6,29.99,SW,232,0.0,0.0,98,0.00,,---,0.00,VWS V14.01,2013-12-05 06:55:00,
2013-12-05 01:57:00,43.8,43.0,30.00,SW,232,1.0,2.0,97,0.00,,---,0.00,VWS V14.01,2013-12-05 06:57:00,
2013-12-05 02:00:00,43.6,42.8,30.00,SW,232,0.0,2.0,97,0.00,,---,0.00,VWS V14.01,2013-12-05 07:00:00,
2013-12-05 02:02:00,43.5,42.7,29.99,SW,232,0.0,0.0,97,0.00,,---,0.00,VWS V14.01,2013-12-05 07:02:00,
2013-12-05 02:05:00,43.5,42.7,29.99,SW,232,1.0,2.0,97,0.00,,---,0.00,VWS V14.01,2013-12-05 07:05:00,
2013-12-05 02:07:00,43.3,42.5,29.99,SW,232,0.0,1.0,97,0.00,,---,0.00,VWS V14.01,2013-12-05 07:07:00,
2013-12-05 02:10:00,43.3,42.5,29.99,SW,232,0.0,1.0,97,0.00,,---,0.00,VWS V14.01,2013-12-05 07:10:00,
2013-12-05 02:12:00,43.2,42.4,29.99,SW,232,0.0,1.0,97,0.00,,---,0.00,VWS V14.01,2013-12-05 07:12:00,
2013-12-05 02:15:00,43.2,42.4,29.99,SW,232,0.0,1.0,97,0.00,,---,0.00,VWS V14.01,2013-12-05 07:15:00,
2013-12-05 02:18:00,43.2,42.4,29.99,SW,232,0.0,1.0,97,0.00,,---,0.00,VWS V14.01,2013-12-05 07:18:00,
2013-12-05 02:20:00,43.2,42.4,29.99,SW,232,0.0,1.0,97,0.00,,---,0.00,VWS V14.01,2013-12-05 07:20:00,
2013-12-05 02:23:00,43.1,42.3,29.99,SW,232,0.0,0.0,97,0.00,,---,0.00,VWS V14.01,2013-12-05 07:23:00,
2013-12-05 02:25:00,43.1,42.6,29.99,SW,232,0.0,0.0,98,0.00,,---,0.00,VWS V14.01,2013-12-05 07:25:00,
2013-12-05 02:28:00,43.2,42.7,29.99,SW,232,0.0,1.0,98,0.00,,---,0.00,VWS V14.01,2013-12-05 07:28:00,
2013-12-05 02:30:00,43.2,42.7,29.99,SW,232,0.0,1.0,98,0.00,,---,0.00,VWS V14.01,2013-12-05 07:30:00,
2013-12-05 02:33:00,43.3,42.8,29.99,SW,232,0.0,1.0,98,0.00,,---,0.00,VWS V14.01,2013-12-05 07:33:00,
2013-12-05 02:35:00,43.3,42.8,29.99,SW,232,0.0,2.0,98,0.00,,---,0.00,VWS V14.01,2013-12-05 07:35:00,
2013-12-05 02:38:00,43.3,42.8,29.99,SW,232,0.0,1.0,98,0.00,,---,0.00,VWS V14.01,2013-12-05 07:38:00,
2013-12-05 02:40:00,43.5,43.0,29.99,SW,232,1.0,1.0,98,0.00,,---,0.00,VWS V14.01,2013-12-05 07:40:00,
2013-12-05 02:43:00,43.6,43.1,29.99,SW,232,0.0,1.0,98,0.00,,---,0.00,VWS V14.01,2013-12-05 07:43:00,
2013-12-05 02:45:00,43.8,43.3,29.99,SW,232,0.0,1.0,98,0.00,,---,0.00,VWS V14.01,2013-12-05 07:45:00,
2013-12-05 02:48:00,43.9,43.6,29.99,SW,232,1.0,1.0,99,0.00,,---,0.00,VWS V14.01,2013-12-05 07:48:00,
2013-12-05 02:50:00,44.1,43.8,29.99,SW,232,0.0,1.0,99,0.00,,---,0.00,VWS V14.01,2013-12-05 07:50:00,
2013-12-05 02:53:00,44.1,43.8,29.99,SW,232,0.0,0.0,99,0.00,,---,0.00,VWS V14.01,2013-12-05 07:53:00,
2013-12-05 02:55:00,44.2,43.9,29.99,SW,232,0.0,0.0,99,0.00,,---,0.00,VWS V14.01,2013-12-05 07:55:00,
2013-12-05 02:58:00,44.2,43.9,29.99,SW,232,0.0,1.0,99,0.00,,---,0.00,VWS V14.01,2013-12-05 07:58:00,
2013-12-05 03:00:00,44.2,43.9,29.99,SW,232,0.0,1.0,99,0.00,,---,0.00,VWS V14.01,2013-12-05 08:00:00,
2013-12-05 03:03:00,44.3,44.0,29.99,SW,232,0.0,0.0,99,0.00,,---,0.00,VWS V14.01,2013-12-05 08:03:00,
2013-12-05 03:05:00,44.3,44.0,29.99,SW,232,0.0,0.0,99,0.00,,---,0.00,VWS V14.01,2013-12-05 08:05:00,
2013-12-05 03:08:00,44.3,44.0,30.00,SW,232,0.0,0.0,99,0.00,,---,0.00,VWS V14.01,2013-12-05 08:08:00,
2013-12-05 03:10:00,44.3,44.0,30.00,SW,232,0.0,0.0,99,0.00,,---,0.00,VWS V14.01,2013-12-05 08:10:00,
2013-12-05 03:13:00,44.5,44.2,29.99,SW,232,0.0,0.0,99,0.00,,---,0.00,VWS V14.01,2013-12-05 08:13:00,
2013-12-05 03:15:00,44.5,44.2,29.99,SW,232,0.0,0.0,99,0.00,,---,0.00,VWS V14.01,2013-12-05 08:15:00,
2013-12-05 03:18:00,44.5,44.2,29.99,SW,232,0.0,0.0,99,0.00,,---,0.00,VWS V14.01,2013-12-05 08:18:00,
2013-12-05 03:20:00,44.5,44.2,29.99,SW,232,0.0,0.0,99,0.00,,---,0.00,VWS V14.01,2013-12-05 08:20:00,
2013-12-05 03:23:00,44.5,44.2,29.99,SW,232,0.0,0.0,99,0.00,,---,0.00,VWS V14.01,2013-12-05 08:23:00,
2013-12-05 03:25:00,44.5,44.2,29.99,SW,232,0.0,0.0,99,0.00,,---,0.00,VWS V14.01,2013-12-05 08:25:00,
2013-12-05 03:28:00,44.5,44.2,29.99,SW,232,0.0,0.0,99,0.00,,---,0.00,VWS V14.01,2013-12-05 08:28:00,
2013-12-05 03:30:00,44.3,43.8,30.00,SW,232,0.0,0.0,98,0.00,,---,0.00,VWS V14.01,2013-12-05 08:30:00,
2013-12-05 03:33:00,44.3,43.8,30.00,SW,232,0.0,0.0,98,0.00,,---,0.00,VWS V14.01,2013-12-05 08:33:00,
2013-12-05 03:35:00,44.2,43.7,30.00,SW,232,0.0,0.0,98,0.00,,---,0.00,VWS V14.01,2013-12-05 08:35:00,
2013-12-05 03:38:00,44.2,43.7,30.00,SW,232,0.0,0.0,98,0.00,,---,0.00,VWS V14.01,2013-12-05 08:38:00,
2013-12-05 03:40:00,44.2,43.7,30.00,SW,232,0.0,0.0,98,0.00,,---,0.00,VWS V14.01,2013-12-05 08:40:00,
2013-12-05 03:43:00,44.1,43.6,30.00,SW,232,0.0,0.0,98,0.00,,---,0.00,VWS V14.01,2013-12-05 08:43:00,
2013-12-05 03:45:00,44.1,43.6,30.00,SW,232,0.0,0.0,98,0.00,,---,0.00,VWS V14.01,2013-12-05 08:45:00,
2013-12-05 03:48:00,44.1,43.6,29.99,SW,232,0.0,0.0,98,0.00,,---,0.00,VWS V14.01,2013-12-05 08:48:00,
2013-12-05 03:50:00,44.1,43.6,29.99,SW,232,0.0,0.0,98,0.00,,---,0.00,VWS V14.01,2013-12-05 08:50:00,
2013-12-05 03:53:00,43.9,43.4,29.99,SW,232,0.0,0.0,98,0.00,,---,0.00,VWS V14.01,2013-12-05 08:53:00,
2013-12-05 03:55:00,43.9,43.4,29.99,SW,232,0.0,0.0,98,0.00,,---,0.00,VWS V14.01,2013-12-05 08:55:00,
2013-12-05 03:58:00,43.9,43.4,29.99,SW,232,0.0,0.0,98,0.00,,---,0.00,VWS V14.01,2013-12-05 08:58:00,
2013-12-05 04:00:00,43.8,43.3,29.99,SW,232,0.0,0.0,98,0.00,,---,0.00,VWS V14.01,2013-12-05 09:00:00,
2013-12-05 04:03:00,43.8,43.3,29.99,SW,232,0.0,0.0,98,0.00,,---,0.00,VWS V14.01,2013-12-05 09:03:00,
2013-12-05 04:05:00,43.8,43.3,29.99,SW,232,0.0,0.0,98,0.00,,---,0.00,VWS V14.01,2013-12-05 09:05:00,
2013-12-05 04:08:00,43.6,43.1,30.00,SW,232,0.0,0.0,98,0.00,,---,0.00,VWS V14.01,2013-12-05 09:08:00,
2013-12-05 04:10:00,43.6,43.1,30.00,SW,232,0.0,0.0,98,0.00,,---,0.00,VWS V14.01,2013-12-05 09:10:00,
2013-12-05 04:13:00,43.5,43.0,29.99,SW,232,0.0,0.0,98,0.00,,---,0.00,VWS V14.01,2013-12-05 09:13:00,
2013-12-05 04:15:00,43.5,43.0,29.99,SW,232,0.0,0.0,98,0.00,,---,0.00,VWS V14.01,2013-12-05 09:15:00,
2013-12-05 04:18:00,43.3,42.8,29.99,SW,232,0.0,0.0,98,0.00,,---,0.00,VWS V14.01,2013-12-05 09:18:00,
2013-12-05 04:20:00,43.3,42.8,29.99,SW,232,0.0,0.0,98,0.00,,---,0.00,VWS V14.01,2013-12-05 09:20:00,
2013-12-05 04:24:00,43.2,42.7,29.99,SW,232,0.0,0.0,98,0.00,,---,0.00,VWS V14.01,2013-12-05 09:24:00,
2013-12-05 04:25:00,43.2,42.7,29.99,SW,232,0.0,0.0,98,0.00,,---,0.00,VWS V14.01,2013-12-05 09:25:00,
2013-12-05 04:29:00,43.1,42.6,29.99,SW,232,0.0,0.0,98,0.00,,---,0.00,VWS V14.01,2013-12-05 09:29:00,
2013-12-05 04:30:00,43.1,42.6,29.99,SW,232,0.0,0.0,98,0.00,,---,0.00,VWS V14.01,2013-12-05 09:30:00,
2013-12-05 04:34:00,42.9,42.4,29.99,SW,232,0.0,0.0,98,0.00,,---,0.00,VWS V14.01,2013-12-05 09:34:00,
2013-12-05 04:35:00,42.9,42.4,29.99,SW,232,0.0,0.0,98,0.00,,---,0.00,VWS V14.01,2013-12-05 09:35:00,
2013-12-05 04:39:00,42.8,42.3,29.99,SW,232,0.0,0.0,98,0.00,,---,0.00,VWS V14.01,2013-12-05 09:39:00,
2013-12-05 04:40:00,42.8,42.3,29.99,SW,232,0.0,0.0,98,0.00,,---,0.00,VWS V14.01,2013-12-05 09:40:00,
2013-12-05 04:44:00,42.6,42.1,29.98,SW,232,0.0,0.0,98,0.00,,---,0.00,VWS V14.01,2013-12-05 09:44:00,
2013-12-05 04:45:00,42.6,42.1,29.98,SW,232,0.0,0.0,98,0.00,,---,0.00,VWS V14.01,2013-12-05 09:45:00,
2013-12-05 04:49:00,42.5,41.7,29.98,SW,232,0.0,0.0,97,0.00,,---,0.00,VWS V14.01,2013-12-05 09:49:00,
2013-12-05 04:50:00,42.5,41.7,29.98,SW,232,0.0,0.0,97,0.00,,---,0.00,VWS V14.01,2013-12-05 09:50:00,
2013-12-05 04:54:00,42.3,41.5,29.98,SW,232,0.0,0.0,97,0.00,,---,0.00,VWS V14.01,2013-12-05 09:54:00,
2013-12-05 04:55:00,42.3,41.5,29.98,SW,232,0.0,0.0,97,0.00,,---,0.00,VWS V14.01,2013-12-05 09:55:00,
2013-12-05 04:59:00,42.2,41.4,29.98,SW,232,0.0,0.0,97,0.00,,---,0.00,VWS V14.01,2013-12-05 09:59:00,
2013-12-05 05:00:00,42.2,41.4,29.98,SW,232,0.0,0.0,97,0.00,,---,0.00,VWS V14.01,2013-12-05 10:00:00,
2013-12-05 05:04:00,42.1,41.3,29.98,SW,232,0.0,0.0,97,0.00,,---,0.00,VWS V14.01,2013-12-05 10:04:00,
2013-12-05 05:05:00,42.1,41.3,29.98,SW,232,0.0,0.0,97,0.00,,---,0.00,VWS V14.01,2013-12-05 10:05:00,
2013-12-05 05:09:00,41.9,41.1,29.98,SW,232,0.0,0.0,97,0.00,,---,0.00,VWS V14.01,2013-12-05 10:09:00,
2013-12-05 05:10:00,41.9,41.1,29.98,SW,232,0.0,0.0,97,0.00,,---,0.00,VWS V14.01,2013-12-05 10:10:00,
2013-12-05 05:14:00,41.8,41.0,29.98,SW,232,0.0,0.0,97,0.00,,---,0.00,VWS V14.01,2013-12-05 10:14:00,
2013-12-05 05:15:00,41.8,41.0,29.98,SW,232,0.0,0.0,97,0.00,,---,0.00,VWS V14.01,2013-12-05 10:15:00,
2013-12-05 05:19:00,41.6,40.8,29.98,SW,232,0.0,0.0,97,0.00,,---,0.00,VWS V14.01,2013-12-05 10:19:00,
2013-12-05 05:20:00,41.6,40.8,29.98,SW,232,0.0,0.0,97,0.00,,---,0.00,VWS V14.01,2013-12-05 10:20:00,
2013-12-05 05:24:00,41.6,40.8,29.98,SW,232,0.0,0.0,97,0.00,,---,0.00,VWS V14.01,2013-12-05 10:24:00,
2013-12-05 05:25:00,41.6,40.8,29.98,SW,232,0.0,0.0,97,0.00,,---,0.00,VWS V14.01,2013-12-05 10:25:00,
2013-12-05 05:29:00,41.5,40.7,29.98,SW,232,0.0,0.0,97,0.00,,---,0.00,VWS V14.01,2013-12-05 10:29:00,
2013-12-05 05:30:00,41.5,40.7,29.98,SW,232,0.0,0.0,97,0.00,,---,0.00,VWS V14.01,2013-12-05 10:30:00,
2013-12-05 05:34:00,41.3,40.5,29.99,SW,232,0.0,0.0,97,0.00,,---,0.00,VWS V14.01,2013-12-05 10:34:00,
2013-12-05 05:35:00,41.3,40.5,29.99,SW,232,0.0,0.0,97,0.00,,---,0.00,VWS V14.01,2013-12-05 10:35:00,
2013-12-05 05:39:00,41.2,40.4,29.98,SW,232,0.0,0.0,97,0.00,,---,0.00,VWS V14.01,2013-12-05 10:39:00,
2013-12-05 05:40:00,41.2,40.4,29.98,SW,232,0.0,0.0,97,0.00,,---,0.00,VWS V14.01,2013-12-05 10:40:00,
2013-12-05 05:44:00,41.1,40.3,29.98,SW,232,0.0,0.0,97,0.00,,---,0.00,VWS V14.01,2013-12-05 10:44:00,
2013-12-05 05:45:00,41.1,40.3,29.98,SW,232,0.0,0.0,97,0.00,,---,0.00,VWS V14.01,2013-12-05 10:45:00,
2013-12-05 05:49:00,41.1,40.3,29.98,SW,232,0.0,0.0,97,0.00,,---,0.00,VWS V14.01,2013-12-05 10:49:00,
2013-12-05 05:50:00,40.9,40.1,29.98,SW,232,0.0,0.0,97,0.00,,---,0.00,VWS V14.01,2013-12-05 10:50:00,
2013-12-05 05:54:00,40.9,40.1,29.98,SW,232,0.0,0.0,97,0.00,,---,0.00,VWS V14.01,2013-12-05 10:54:00,
2013-12-05 05:55:00,40.9,40.1,29.98,SW,232,0.0,0.0,97,0.00,,---,0.00,VWS V14.01,2013-12-05 10:55:00,
2013-12-05 05:59:00,40.8,40.0,29.99,SW,232,0.0,0.0,97,0.00,,---,0.00,VWS V14.01,2013-12-05 10:59:00,
2013-12-05 06:00:00,40.8,40.0,29.99,SW,232,0.0,0.0,97,0.00,,---,0.00,VWS V14.01,2013-12-05 11:00:00,
2013-12-05 06:04:00,40.6,39.8,29.99,SW,232,0.0,0.0,97,0.00,,---,0.00,VWS V14.01,2013-12-05 11:04:00,
2013-12-05 06:05:00,40.6,39.8,29.99,SW,232,0.0,0.0,97,0.00,,---,0.00,VWS V14.01,2013-12-05 11:05:00,
2013-12-05 06:09:00,40.5,39.7,29.99,SW,232,0.0,0.0,97,0.00,,---,0.00,VWS V14.01,2013-12-05 11:09:00,
2013-12-05 06:10:00,40.5,39.7,29.99,SW,232,0.0,0.0,97,0.00,,---,0.00,VWS V14.01,2013-12-05 11:10:00,
2013-12-05 06:14:00,40.5,39.7,29.99,SW,232,0.0,0.0,97,0.00,,---,0.00,VWS V14.01,2013-12-05 11:14:00,
2013-12-05 06:15:00,40.5,39.7,29.99,SW,232,0.0,0.0,97,0.00,,---,0.00,VWS V14.01,2013-12-05 11:15:00,
2013-12-05 06:19:00,40.3,39.5,29.99,SW,232,0.0,0.0,97,0.00,,---,0.00,VWS V14.01,2013-12-05 11:19:00,
2013-12-05 06:20:00,40.3,39.5,29.99,SW,232,0.0,0.0,97,0.00,,---,0.00,VWS V14.01,2013-12-05 11:20:00,
2013-12-05 06:24:00,40.2,39.4,29.99,SW,232,0.0,2.0,97,0.00,,---,0.00,VWS V14.01,2013-12-05 11:24:00,
2013-12-05 06:25:00,40.2,39.4,29.99,SW,232,0.0,2.0,97,0.00,,---,0.00,VWS V14.01,2013-12-05 11:25:00,
2013-12-05 06:29:00,40.2,39.4,29.99,SW,232,0.0,0.0,97,0.00,,---,0.00,VWS V14.01,2013-12-05 11:29:00,
2013-12-05 06:30:00,40.2,39.4,29.99,SW,232,0.0,0.0,97,0.00,,---,0.00,VWS V14.01,2013-12-05 11:30:00,
2013-12-05 06:34:00,40.3,39.5,29.99,SW,232,0.0,0.0,97,0.00,,---,0.00,VWS V14.01,2013-12-05 11:34:00,
2013-12-05 06:35:00,40.3,39.5,29.99,SW,232,0.0,0.0,97,0.00,,---,0.00,VWS V14.01,2013-12-05 11:35:00,
2013-12-05 06:39:00,40.5,39.7,29.99,SW,232,0.0,0.0,97,0.00,,---,0.00,VWS V14.01,2013-12-05 11:39:00,
2013-12-05 06:40:00,40.5,39.7,29.99,SW,232,0.0,0.0,97,0.00,,---,0.00,VWS V14.01,2013-12-05 11:40:00,
2013-12-05 06:44:00,40.5,39.7,29.99,SW,232,0.0,0.0,97,0.00,,---,0.00,VWS V14.01,2013-12-05 11:44:00,
2013-12-05 06:45:00,40.5,39.7,29.99,SW,232,0.0,0.0,97,0.00,,---,0.00,VWS V14.01,2013-12-05 11:45:00,
2013-12-05 06:49:00,40.5,39.7,29.99,SW,232,0.0,0.0,97,0.00,,---,0.00,VWS V14.01,2013-12-05 11:49:00,
2013-12-05 06:50:00,40.5,39.7,29.99,SW,232,0.0,0.0,97,0.00,,---,0.00,VWS V14.01,2013-12-05 11:50:00,
2013-12-05 06:54:00,40.5,39.7,29.99,SW,232,0.0,0.0,97,0.00,,---,0.00,VWS V14.01,2013-12-05 11:54:00,
2013-12-05 06:55:00,40.5,39.7,29.99,SW,232,0.0,0.0,97,0.00,,---,0.00,VWS V14.01,2013-12-05 11:55:00,
2013-12-05 07:00:00,40.5,39.7,29.99,SW,232,0.0,0.0,97,0.00,,---,0.00,VWS V14.01,2013-12-05 12:00:00,
2013-12-05 07:05:00,40.5,40.0,29.99,SW,232,0.0,0.0,98,0.00,,---,0.00,VWS V14.01,2013-12-05 12:05:00,
2013-12-05 07:10:00,40.5,40.0,30.00,SW,232,0.0,0.0,98,0.00,,---,0.00,VWS V14.01,2013-12-05 12:10:00,
2013-12-05 07:15:00,40.6,40.1,30.00,SW,232,0.0,0.0,98,0.00,,---,0.00,VWS V14.01,2013-12-05 12:15:00,
2013-12-05 07:20:00,40.6,40.1,30.00,SW,232,0.0,0.0,98,0.00,,---,0.00,VWS V14.01,2013-12-05 12:20:00,
2013-12-05 07:25:00,40.8,40.3,30.00,SW,232,0.0,1.0,98,0.00,,---,0.00,VWS V14.01,2013-12-05 12:25:00,
2013-12-05 07:30:00,40.9,40.4,30.00,SW,232,0.0,1.0,98,0.00,,---,0.00,VWS V14.01,2013-12-05 12:30:00,
2013-12-05 07:35:00,41.1,40.6,30.00,SW,232,0.0,0.0,98,0.00,,---,0.00,VWS V14.01,2013-12-05 12:35:00,
2013-12-05 07:40:00,41.2,40.7,30.00,SW,232,0.0,0.0,98,0.00,,---,0.00,VWS V14.01,2013-12-05 12:40:00,
2013-12-05 07:45:00,41.3,41.0,30.00,SW,232,0.0,0.0,99,0.00,,---,0.00,VWS V14.01,2013-12-05 12:45:00,
2013-12-05 07:50:00,41.8,41.5,30.00,SW,232,0.0,1.0,99,0.00,,---,0.00,VWS V14.01,2013-12-05 12:50:00,
2013-12-05 07:55:00,42.3,42.0,30.00,SW,232,2.0,2.0,99,0.00,,---,0.00,VWS V14.01,2013-12-05 12:55:00,
2013-12-05 08:00:00,43.1,42.8,30.00,West,264,0.0,0.0,99,0.00,,---,0.00,VWS V14.01,2013-12-05 13:00:00,
2013-12-05 08:05:00,43.3,43.0,30.01,West,264,0.0,0.0,99,0.00,,---,0.00,VWS V14.01,2013-12-05 13:05:00,
2013-12-05 08:10:00,43.8,43.8,30.01,West,264,0.0,0.0,100,0.00,,---,0.00,VWS V14.01,2013-12-05 13:10:00,
2013-12-05 08:15:00,44.5,44.5,30.00,South,180,2.0,2.0,100,0.00,,---,0.00,VWS V14.01,2013-12-05 13:15:00,
2013-12-05 08:20:00,45.1,45.1,30.00,South,180,0.0,1.0,100,0.00,,---,0.00,VWS V14.01,2013-12-05 13:20:00,
2013-12-05 08:25:00,45.5,45.5,30.01,WSW,238,1.0,2.0,100,0.00,,---,0.00,VWS V14.01,2013-12-05 13:25:00,
2013-12-05 08:30:00,46.2,46.2,30.00,WSW,238,1.0,1.0,100,0.00,,---,0.00,VWS V14.01,2013-12-05 13:30:00,
2013-12-05 08:35:00,46.7,46.7,30.00,SSW,205,2.0,2.0,100,0.00,,---,0.00,VWS V14.01,2013-12-05 13:35:00,
2013-12-05 08:40:00,47.4,47.4,30.00,SW,228,0.0,1.0,100,0.00,,---,0.00,VWS V14.01,2013-12-05 13:40:00,
2013-12-05 08:45:00,48.0,48.0,30.00,SSW,212,1.0,2.0,100,0.00,,---,0.00,VWS V14.01,2013-12-05 13:45:00,
2013-12-05 08:50:00,48.8,48.8,30.00,SW,234,1.0,3.0,100,0.00,,---,0.00,VWS V14.01,2013-12-05 13:50:00,
2013-12-05 08:55:00,49.5,49.5,30.00,WSW,257,1.0,1.0,100,0.00,,---,0.00,VWS V14.01,2013-12-05 13:55:00,
2013-12-05 09:00:00,50.2,50.2,30.00,SSW,204,0.0,4.0,100,0.00,,---,0.00,VWS V14.01,2013-12-05 14:00:00,
2013-12-05 09:05:00,50.7,50.7,30.00,SSW,199,1.0,3.0,100,0.00,,---,0.00,VWS V14.01,2013-12-05 14:05:00,
2013-12-05 09:10:00,51.1,51.1,30.00,SW,219,2.0,3.0,100,0.00,,---,0.00,VWS V14.01,2013-12-05 14:10:00,
2013-12-05 09:11:00,51.1,51.1,30.00,SW,219,0.0,3.0,100,0.00,,---,0.00,VWS V14.01,2013-12-05 14:11:00,
2013-12-05 09:15:00,51.6,51.6,30.00,SSW,209,2.0,5.0,100,0.00,,---,0.00,VWS V14.01,2013-12-05 14:15:00,
2013-12-05 09:16:00,51.6,51.6,30.00,SW,217,2.0,3.0,100,0.00,,---,0.00,VWS V14.01,2013-12-05 14:16:00,
2013-12-05 09:20:00,51.9,51.9,30.00,South,180,2.0,3.0,100,0.00,,---,0.00,VWS V14.01,2013-12-05 14:20:00,
2013-12-05 09:21:00,51.9,51.9,30.00,South,189,1.0,3.0,100,0.00,,---,0.00,VWS V14.01,2013-12-05 14:21:00,
2013-12-05 09:25:00,52.2,52.2,30.00,SSW,200,4.0,5.0,100,0.00,,---,0.00,VWS V14.01,2013-12-05 14:25:00,
2013-12-05 09:26:00,52.2,52.2,30.00,SSW,209,5.0,7.0,100,0.00,,---,0.00,VWS V14.01,2013-12-05 14:26:00,
2013-12-05 09:30:00,52.5,52.5,30.00,SSW,209,3.0,9.0,100,0.00,,---,0.00,VWS V14.01,2013-12-05 14:30:00,
2013-12-05 09:31:00,52.6,52.6,30.00,South,189,1.0,4.0,100,0.00,,---,0.00,VWS V14.01,2013-12-05 14:31:00,
2013-12-05 09:35:00,52.8,52.8,30.00,SW,217,3.0,5.0,100,0.00,,---,0.00,VWS V14.01,2013-12-05 14:35:00,
2013-12-05 09:36:00,52.9,52.9,30.00,SSW,201,1.0,5.0,100,0.00,,---,0.00,VWS V14.01,2013-12-05 14:36:00,
2013-12-05 09:40:00,53.1,53.1,30.00,SSW,202,6.0,6.0,100,0.00,,---,0.00,VWS V14.01,2013-12-05 14:40:00,
2013-12-05 09:41:00,53.2,53.2,30.00,SSW,198,2.0,6.0,100,0.00,,---,0.00,VWS V14.01,2013-12-05 14:41:00,
2013-12-05 09:45:00,53.3,53.3,30.00,SW,219,2.0,9.0,100,0.00,,---,0.00,VWS V14.01,2013-12-05 14:45:00,
2013-12-05 09:46:00,53.3,53.3,30.00,SSW,210,4.0,4.0,100,0.00,,---,0.00,VWS V14.01,2013-12-05 14:46:00,
2013-12-05 09:50:00,53.5,53.5,30.00,SSW,211,5.0,6.0,100,0.00,,---,0.00,VWS V14.01,2013-12-05 14:50:00,
2013-12-05 09:51:00,53.6,53.6,30.00,WSW,238,3.0,7.0,100,0.00,,---,0.00,VWS V14.01,2013-12-05 14:51:00,
2013-12-05 09:55:00,53.6,53.6,30.00,SSW,210,1.0,7.0,100,0.00,,---,0.00,VWS V14.01,2013-12-05 14:55:00,
2013-12-05 09:56:00,53.8,53.8,30.00,SSW,209,2.0,4.0,100,0.00,,---,0.00,VWS V14.01,2013-12-05 14:56:00,
2013-12-05 10:00:00,53.9,53.9,29.99,South,184,2.0,6.0,100,0.00,,---,0.00,VWS V14.01,2013-12-05 15:00:00,
2013-12-05 10:01:00,53.9,53.9,29.99,West,259,3.0,6.0,100,0.00,,---,0.00,VWS V14.01,2013-12-05 15:01:00,
2013-12-05 10:05:00,54.1,54.1,29.99,SSW,200,4.0,6.0,100,0.00,,---,0.00,VWS V14.01,2013-12-05 15:05:00,
2013-12-05 10:06:00,54.1,54.1,29.99,SW,215,3.0,4.0,100,0.00,,---,0.00,VWS V14.01,2013-12-05 15:06:00,
2013-12-05 10:10:00,54.2,54.2,30.00,South,190,5.0,6.0,100,0.00,,---,0.00,VWS V14.01,2013-12-05 15:10:00,
2013-12-05 10:11:00,54.4,54.4,30.00,WSW,252,4.0,7.0,100,0.00,,---,0.00,VWS V14.01,2013-12-05 15:11:00,
2013-12-05 10:15:00,54.5,54.5,30.00,SW,232,3.0,7.0,100,0.00,,---,0.00,VWS V14.01,2013-12-05 15:15:00,
2013-12-05 10:16:00,54.7,54.4,29.99,SSW,198,4.0,5.0,99,0.00,,---,0.00,VWS V14.01,2013-12-05 15:16:00,
2013-12-05 10:20:00,55.0,54.7,29.99,SSW,208,2.0,5.0,99,0.00,,---,0.00,VWS V14.01,2013-12-05 15:20:00,
2013-12-05 10:21:00,55.1,54.5,29.99,SSW,213,4.0,5.0,98,0.00,,---,0.00,VWS V14.01,2013-12-05 15:21:00,
2013-12-05 10:25:00,55.6,54.8,29.99,SSW,201,4.0,6.0,97,0.00,,---,0.00,VWS V14.01,2013-12-05 15:25:00,
2013-12-05 10:26:00,55.7,54.9,29.99,SW,218,9.0,10.0,97,0.00,,---,0.00,VWS V14.01,2013-12-05 15:26:00,
2013-12-05 10:30:00,56.0,54.6,29.99,SSW,197,3.0,10.0,95,0.00,,---,0.00,VWS V14.01,2013-12-05 15:30:00,
2013-12-05 10:31:00,56.2,54.5,29.99,SSW,207,1.0,9.0,94,0.00,,---,0.00,VWS V14.01,2013-12-05 15:31:00,
2013-12-05 10:35:00,56.5,54.2,29.98,WSW,258,3.0,9.0,92,0.00,,---,0.00,VWS V14.01,2013-12-05 15:35:00,
2013-12-05 10:36:00,56.6,54.0,29.98,West,272,3.0,6.0,91,0.00,,---,0.00,VWS V14.01,2013-12-05 15:36:00,
2013-12-05 10:40:00,56.9,53.7,29.99,WSW,248,5.0,8.0,89,0.00,,---,0.00,VWS V14.01,2013-12-05 15:40:00,
2013-12-05 10:41:00,57.0,53.5,29.99,SW,225,4.0,10.0,88,0.00,,---,0.00,VWS V14.01,2013-12-05 15:41:00,
2013-12-05 10:45:00,57.5,53.3,29.98,SSW,203,6.0,10.0,86,0.00,,---,0.00,VWS V14.01,2013-12-05 15:45:00,
2013-12-05 10:46:00,57.6,53.5,29.98,SSW,211,5.0,7.0,86,0.00,,---,0.00,VWS V14.01,2013-12-05 15:46:00,
2013-12-05 10:50:00,58.0,53.8,29.97,SSW,205,4.0,10.0,86,0.00,,---,0.00,VWS V14.01,2013-12-05 15:50:00,
2013-12-05 10:51:00,58.1,53.6,29.97,South,184,9.0,10.0,85,0.00,,---,0.00,VWS V14.01,2013-12-05 15:51:00,
2013-12-05 10:55:00,58.4,53.6,29.97,WSW,257,5.0,10.0,84,0.00,,---,0.00,VWS V14.01,2013-12-05 15:55:00,
2013-12-05 10:56:00,58.6,53.8,29.97,SW,214,3.0,8.0,84,0.00,,---,0.00,VWS V14.01,2013-12-05 15:56:00,
2013-12-05 11:00:00,58.9,53.8,29.96,SW,220,5.0,10.0,83,0.00,,---,0.00,VWS V14.01,2013-12-05 16:00:00,
2013-12-05 11:01:00,59.0,54.2,29.96,SW,214,3.0,6.0,84,0.00,,---,0.00,VWS V14.01,2013-12-05 16:01:00,
2013-12-05 11:05:00,59.3,53.8,29.96,SW,223,4.0,10.0,82,0.00,,---,0.00,VWS V14.01,2013-12-05 16:05:00,
2013-12-05 11:06:00,59.5,53.7,29.96,SSW,211,2.0,8.0,81,0.00,,---,0.00,VWS V14.01,2013-12-05 16:06:00,
2013-12-05 11:10:00,59.8,54.0,29.95,SW,234,3.0,8.0,81,0.00,,---,0.00,VWS V14.01,2013-12-05 16:10:00,
2013-12-05 11:11:00,59.9,53.7,29.95,WSW,237,3.0,9.0,80,0.00,,---,0.00,VWS V14.01,2013-12-05 16:11:00,
2013-12-05 11:15:00,60.2,54.0,29.95,SSW,201,2.0,10.0,80,0.00,,---,0.00,VWS V14.01,2013-12-05 16:15:00,
2013-12-05 11:16:00,60.5,54.0,29.95,SSW,208,4.0,9.0,79,0.00,,---,0.00,VWS V14.01,2013-12-05 16:16:00,
2013-12-05 11:20:00,60.7,53.8,29.95,West,279,5.0,10.0,78,0.00,,---,0.00,VWS V14.01,2013-12-05 16:20:00,
2013-12-05 11:21:00,60.7,53.8,29.95,West,266,5.0,10.0,78,0.00,,---,0.00,VWS V14.01,2013-12-05 16:21:00,
2013-12-05 11:25:00,60.9,53.7,29.94,SW,228,6.0,10.0,77,0.00,,---,0.00,VWS V14.01,2013-12-05 16:25:00,
2013-12-05 11:26:00,60.9,53.7,29.94,SW,234,9.0,9.0,77,0.00,,---,0.00,VWS V14.01,2013-12-05 16:26:00,
2013-12-05 11:30:00,60.9,53.7,29.94,West,259,9.0,9.0,77,0.00,,---,0.00,VWS V14.01,2013-12-05 16:30:00,
2013-12-05 11:31:00,60.9,53.7,29.94,SW,217,5.0,9.0,77,0.00,,---,0.00,VWS V14.01,2013-12-05 16:31:00,
2013-12-05 11:35:00,60.9,54.0,29.94,SSW,211,2.0,9.0,78,0.00,,---,0.00,VWS V14.01,2013-12-05 16:35:00,
2013-12-05 11:36:00,60.9,54.0,29.94,SSW,209,10.0,10.0,78,0.00,,---,0.00,VWS V14.01,2013-12-05 16:36:00,
2013-12-05 11:40:00,61.0,54.5,29.94,WSW,244,1.0,10.0,79,0.00,,---,0.00,VWS V14.01,2013-12-05 16:40:00,
2013-12-05 11:42:00,61.0,54.1,29.93,WSW,238,5.0,11.0,78,0.00,,---,0.00,VWS V14.01,2013-12-05 16:42:00,
2013-12-05 11:45:00,61.3,54.4,29.93,SW,232,7.0,11.0,78,0.00,,---,0.00,VWS V14.01,2013-12-05 16:45:00,
2013-12-05 11:47:00,61.5,53.9,29.93,SW,221,8.0,11.0,76,0.00,,---,0.00,VWS V14.01,2013-12-05 16:47:00,
2013-12-05 11:50:00,61.6,54.0,29.93,SW,231,4.0,11.0,76,0.00,,---,0.00,VWS V14.01,2013-12-05 16:50:00,
2013-12-05 11:52:00,61.6,54.0,29.94,WSW,239,4.0,9.0,76,0.00,,---,0.00,VWS V14.01,2013-12-05 16:52:00,
2013-12-05 11:55:00,61.8,54.2,29.93,SW,221,5.0,10.0,76,0.00,,---,0.00,VWS V14.01,2013-12-05 16:55:00,
2013-12-05 11:57:00,62.0,54.4,29.93,SW,229,6.0,9.0,76,0.00,,---,0.00,VWS V14.01,2013-12-05 16:57:00,
2013-12-05 12:00:00,62.0,54.0,29.93,SSW,209,2.0,12.0,75,0.00,,---,0.00,VWS V14.01,2013-12-05 17:00:00,
2013-12-05 12:02:00,62.0,54.0,29.93,SW,217,10.0,10.0,75,0.00,,---,0.00,VWS V14.01,2013-12-05 17:02:00,
2013-12-05 12:05:00,62.1,54.1,29.93,SW,219,10.0,10.0,75,0.00,,---,0.00,VWS V14.01,2013-12-05 17:05:00,
2013-12-05 12:07:00,62.1,54.1,29.93,SW,226,3.0,10.0,75,0.00,,---,0.00,VWS V14.01,2013-12-05 17:07:00,
2013-12-05 12:10:00,62.3,54.3,29.93,SSW,200,4.0,10.0,75,0.00,,---,0.00,VWS V14.01,2013-12-05 17:10:00,
2013-12-05 12:12:00,62.4,54.4,29.93,SW,225,4.0,7.0,75,0.00,,---,0.00,VWS V14.01,2013-12-05 17:12:00,
2013-12-05 12:15:00,62.4,54.4,29.93,SW,218,3.0,7.0,75,0.00,,---,0.00,VWS V14.01,2013-12-05 17:15:00,
2013-12-05 12:17:00,62.6,54.6,29.92,SW,215,8.0,8.0,75,0.00,,---,0.00,VWS V14.01,2013-12-05 17:17:00,
2013-12-05 12:20:00,62.7,54.3,29.92,SW,225,5.0,9.0,74,0.00,,---,0.00,VWS V14.01,2013-12-05 17:20:00,
2013-12-05 12:22:00,62.9,54.5,29.92,SW,219,5.0,9.0,74,0.00,,---,0.00,VWS V14.01,2013-12-05 17:22:00,
2013-12-05 12:25:00,62.9,54.1,29.92,SSW,211,3.0,11.0,73,0.00,,---,0.00,VWS V14.01,2013-12-05 17:25:00,
2013-12-05 12:27:00,62.9,54.5,29.92,WNW,284,4.0,7.0,74,0.00,,---,0.00,VWS V14.01,2013-12-05 17:27:00,
2013-12-05 12:30:00,62.9,54.5,29.92,WSW,244,3.0,8.0,74,0.00,,---,0.00,VWS V14.01,2013-12-05 17:30:00,
2013-12-05 12:32:00,62.9,54.5,29.92,West,271,5.0,7.0,74,0.00,,---,0.00,VWS V14.01,2013-12-05 17:32:00,
2013-12-05 12:35:00,62.9,54.5,29.92,SW,218,5.0,10.0,74,0.00,,---,0.00,VWS V14.01,2013-12-05 17:35:00,
2013-12-05 12:37:00,63.1,54.3,29.92,West,269,3.0,9.0,73,0.00,,---,0.00,VWS V14.01,2013-12-05 17:37:00,
2013-12-05 12:40:00,63.1,54.3,29.92,WSW,246,6.0,9.0,73,0.00,,---,0.00,VWS V14.01,2013-12-05 17:40:00,
2013-12-05 12:42:00,63.2,54.4,29.91,SW,235,6.0,7.0,73,0.00,,---,0.00,VWS V14.01,2013-12-05 17:42:00,
2013-12-05 12:45:00,63.2,54.4,29.91,SW,217,3.0,10.0,73,0.00,,---,0.00,VWS V14.01,2013-12-05 17:45:00,
2013-12-05 12:47:00,63.2,54.4,29.91,SW,230,2.0,5.0,73,0.00,,---,0.00,VWS V14.01,2013-12-05 17:47:00,
2013-12-05 12:50:00,63.2,54.4,29.91,SSW,211,3.0,7.0,73,0.00,,---,0.00,VWS V14.01,2013-12-05 17:50:00,
2013-12-05 12:52:00,63.2,54.4,29.91,South,180,5.0,6.0,73,0.00,,---,0.00,VWS V14.01,2013-12-05 17:52:00,
2013-12-05 12:55:00,63.4,54.6,29.91,SW,221,3.0,6.0,73,0.00,,---,0.00,VWS V14.01,2013-12-05 17:55:00,
2013-12-05 12:57:00,63.4,54.6,29.91,SW,229,2.0,5.0,73,0.00,,---,0.00,VWS V14.01,2013-12-05 17:57:00,
2013-12-05 13:00:00,63.4,54.6,29.90,WSW,242,0.0,5.0,73,0.00,,---,0.00,VWS V14.01,2013-12-05 18:00:00,
2013-12-05 13:02:00,63.5,54.7,29.90,SSW,197,1.0,2.0,73,0.00,,---,0.00,VWS V14.01,2013-12-05 18:02:00,
2013-12-05 13:05:00,63.5,54.7,29.90,SW,226,4.0,4.0,73,0.00,,---,0.00,VWS V14.01,2013-12-05 18:05:00,
2013-12-05 13:07:00,63.7,54.9,29.90,SW,220,5.0,6.0,73,0.00,,---,0.00,VWS V14.01,2013-12-05 18:07:00,
2013-12-05 13:10:00,63.7,54.9,29.90,SW,215,2.0,6.0,73,0.00,,---,0.00,VWS V14.01,2013-12-05 18:10:00,
2013-12-05 13:12:00,63.9,55.1,29.89,SW,224,0.0,3.0,73,0.00,,---,0.00,VWS V14.01,2013-12-05 18:12:00,
2013-12-05 13:15:00,64.0,55.2,29.89,SW,225,0.0,3.0,73,0.00,,---,0.00,VWS V14.01,2013-12-05 18:15:00,
2013-12-05 13:17:00,64.2,55.4,29.89,SW,232,3.0,4.0,73,0.00,,---,0.00,VWS V14.01,2013-12-05 18:17:00,
2013-12-05 13:20:00,64.3,55.1,29.89,West,273,2.0,5.0,72,0.00,,---,0.00,VWS V14.01,2013-12-05 18:20:00,
2013-12-05 13:22:00,64.5,55.3,29.89,SSW,213,5.0,5.0,72,0.00,,---,0.00,VWS V14.01,2013-12-05 18:22:00,
2013-12-05 13:25:00,64.7,55.1,29.89,SW,235,2.0,7.0,71,0.00,,---,0.00,VWS V14.01,2013-12-05 18:25:00,
2013-12-05 13:27:00,64.7,55.1,29.89,WSW,239,3.0,7.0,71,0.00,,---,0.00,VWS V14.01,2013-12-05 18:27:00,
2013-12-05 13:30:00,64.8,55.6,29.89,SW,232,4.0,7.0,72,0.00,,---,0.00,VWS V14.01,2013-12-05 18:30:00,
2013-12-05 13:32:00,65.0,55.4,29.88,South,191,1.0,4.0,71,0.00,,---,0.00,VWS V14.01,2013-12-05 18:32:00,
2013-12-05 13:35:00,65.0,55.4,29.88,SW,214,2.0,6.0,71,0.00,,---,0.00,VWS V14.01,2013-12-05 18:35:00,
2013-12-05 13:37:00,65.2,55.2,29.88,WNW,286,4.0,4.0,70,0.00,,---,0.00,VWS V14.01,2013-12-05 18:37:00,
2013-12-05 13:40:00,65.2,55.2,29.88,West,265,2.0,5.0,70,0.00,,---,0.00,VWS V14.01,2013-12-05 18:40:00,
2013-12-05 13:42:00,65.2,55.2,29.88,West,278,2.0,3.0,70,0.00,,---,0.00,VWS V14.01,2013-12-05 18:42:00,
2013-12-05 13:45:00,65.2,55.2,29.88,West,261,3.0,4.0,70,0.00,,---,0.00,VWS V14.01,2013-12-05 18:45:00,
2013-12-05 13:47:00,65.3,55.3,29.88,WSW,250,0.0,4.0,70,0.00,,---,0.00,VWS V14.01,2013-12-05 18:47:00,
2013-12-05 13:50:00,65.3,55.3,29.88,WSW,250,0.0,4.0,70,0.00,,---,0.00,VWS V14.01,2013-12-05 18:50:00,
2013-12-05 13:52:00,65.5,55.9,29.88,WSW,250,2.0,3.0,71,0.00,,---,0.00,VWS V14.01,2013-12-05 18:52:00,
2013-12-05 13:55:00,65.5,55.9,29.88,SW,214,0.0,4.0,71,0.00,,---,0.00,VWS V14.01,2013-12-05 18:55:00,
2013-12-05 13:58:00,65.5,55.9,29.88,SSW,195,0.0,4.0,71,0.00,,---,0.00,VWS V14.01,2013-12-05 18:58:00,
2013-12-05 14:00:00,65.6,56.0,29.88,WSW,240,2.0,4.0,71,0.00,,---,0.00,VWS V14.01,2013-12-05 19:00:00,
2013-12-05 14:03:00,65.8,55.8,29.88,SW,235,4.0,4.0,70,0.00,,---,0.00,VWS V14.01,2013-12-05 19:03:00,
2013-12-05 14:05:00,65.8,56.2,29.88,SW,233,4.0,4.0,71,0.00,,---,0.00,VWS V14.01,2013-12-05 19:05:00,
2013-12-05 14:08:00,66.1,56.0,29.88,SW,217,1.0,5.0,70,0.00,,---,0.00,VWS V14.01,2013-12-05 19:08:00,
2013-12-05 14:10:00,66.1,56.0,29.88,SSW,207,1.0,5.0,70,0.00,,---,0.00,VWS V14.01,2013-12-05 19:10:00,
2013-12-05 14:13:00,66.3,56.6,29.88,SW,215,1.0,6.0,71,0.00,,---,0.00,VWS V14.01,2013-12-05 19:13:00,
2013-12-05 14:15:00,66.3,56.2,29.88,SW,215,2.0,6.0,70,0.00,,---,0.00,VWS V14.01,2013-12-05 19:15:00,
2013-12-05 14:18:00,66.4,56.3,29.88,SW,215,0.0,2.0,70,0.00,,---,0.00,VWS V14.01,2013-12-05 19:18:00,
2013-12-05 14:20:00,66.4,56.3,29.88,South,181,2.0,3.0,70,0.00,,---,0.00,VWS V14.01,2013-12-05 19:20:00,
2013-12-05 14:23:00,66.4,56.3,29.88,SSE,155,2.0,4.0,70,0.00,,---,0.00,VWS V14.01,2013-12-05 19:23:00,
2013-12-05 14:25:00,66.4,56.3,29.88,SE,146,1.0,4.0,70,0.00,,---,0.00,VWS V14.01,2013-12-05 19:25:00,
2013-12-05 14:28:00,66.4,56.3,29.88,ESE,113,3.0,6.0,70,0.00,,---,0.00,VWS V14.01,2013-12-05 19:28:00,
2013-12-05 14:30:00,66.4,56.3,29.88,South,178,1.0,6.0,70,0.00,,---,0.00,VWS V14.01,2013-12-05 19:30:00,
2013-12-05 14:33:00,66.3,55.8,29.88,SE,140,2.0,5.0,69,0.00,,---,0.00,VWS V14.01,2013-12-05 19:33:00,
2013-12-05 14:35:00,66.3,55.8,29.88,SSE,150,4.0,5.0,69,0.00,,---,0.00,VWS V14.01,2013-12-05 19:35:00,
2013-12-05 14:38:00,66.1,55.7,29.88,SE,146,5.0,5.0,69,0.00,,---,0.00,VWS V14.01,2013-12-05 19:38:00,
2013-12-05 14:40:00,66.1,56.0,29.88,SSE,150,4.0,5.0,70,0.00,,---,0.00,VWS V14.01,2013-12-05 19:40:00,
2013-12-05 14:43:00,66.0,56.0,29.88,SE,132,6.0,10.0,70,0.00,,---,0.00,VWS V14.01,2013-12-05 19:43:00,
2013-12-05 14:45:00,66.0,56.0,29.88,SSE,148,3.0,10.0,70,0.00,,---,0.00,VWS V14.01,2013-12-05 19:45:00,
2013-12-05 14:48:00,65.8,55.8,29.87,SSE,155,1.0,5.0,70,0.00,,---,0.00,VWS V14.01,2013-12-05 19:48:00,
2013-12-05 14:50:00,65.8,55.8,29.87,SSE,150,5.0,5.0,70,0.00,,---,0.00,VWS V14.01,2013-12-05 19:50:00,
2013-12-05 14:53:00,65.8,56.2,29.87,East,95,4.0,5.0,71,0.00,,---,0.00,VWS V14.01,2013-12-05 19:53:00,
2013-12-05 14:55:00,65.8,56.2,29.87,ESE,103,3.0,5.0,71,0.00,,---,0.00,VWS V14.01,2013-12-05 19:55:00,
2013-12-05 14:58:00,65.6,56.0,29.87,East,96,3.0,6.0,71,0.00,,---,0.00,VWS V14.01,2013-12-05 19:58:00,
2013-12-05 15:00:00,65.6,56.0,29.87,SSE,163,2.0,6.0,71,0.00,,---,0.00,VWS V14.01,2013-12-05 20:00:00,
2013-12-05 15:03:00,65.5,55.9,29.87,SSE,162,4.0,6.0,71,0.00,,---,0.00,VWS V14.01,2013-12-05 20:03:00,
2013-12-05 15:05:00,65.5,55.9,29.87,SE,128,3.0,6.0,71,0.00,,---,0.00,VWS V14.01,2013-12-05 20:05:00,
2013-12-05 15:08:00,65.3,55.7,29.88,SE,142,4.0,6.0,71,0.00,,---,0.00,VWS V14.01,2013-12-05 20:08:00,
2013-12-05 15:10:00,65.3,55.7,29.88,SE,133,4.0,7.0,71,0.00,,---,0.00,VWS V14.01,2013-12-05 20:10:00,
2013-12-05 15:13:00,65.2,56.0,29.88,SE,139,1.0,5.0,72,0.00,,---,0.00,VWS V14.01,2013-12-05 20:13:00,
2013-12-05 15:15:00,65.2,56.0,29.88,SE,138,2.0,5.0,72,0.00,,---,0.00,VWS V14.01,2013-12-05 20:15:00,
2013-12-05 15:18:00,65.0,55.8,29.88,SE,142,1.0,4.0,72,0.00,,---,0.00,VWS V14.01,2013-12-05 20:18:00,
2013-12-05 15:20:00,65.0,55.8,29.88,SE,138,3.0,4.0,72,0.00,,---,0.00,VWS V14.01,2013-12-05 20:20:00,
2013-12-05 15:23:00,65.0,56.2,29.88,SSE,159,2.0,4.0,73,0.00,,---,0.00,VWS V14.01,2013-12-05 20:23:00,
2013-12-05 15:25:00,64.8,56.0,29.88,SSE,159,1.0,4.0,73,0.00,,---,0.00,VWS V14.01,2013-12-05 20:25:00,
2013-12-05 15:28:00,64.8,56.0,29.88,SE,138,1.0,3.0,73,0.00,,---,0.00,VWS V14.01,2013-12-05 20:28:00,
2013-12-05 15:30:00,64.8,56.0,29.88,SE,138,0.0,3.0,73,0.00,,---,0.00,VWS V14.01,2013-12-05 20:30:00,
2013-12-05 15:33:00,64.7,55.9,29.88,SE,138,1.0,2.0,73,0.00,,---,0.00,VWS V14.01,2013-12-05 20:33:00,
2013-12-05 15:35:00,64.7,55.9,29.88,SE,138,0.0,2.0,73,0.00,,---,0.00,VWS V14.01,2013-12-05 20:35:00,
2013-12-05 15:38:00,64.7,55.9,29.88,SE,138,0.0,2.0,73,0.00,,---,0.00,VWS V14.01,2013-12-05 20:38:00,
2013-12-05 15:40:00,64.7,55.9,29.88,SE,138,2.0,2.0,73,0.00,,---,0.00,VWS V14.01,2013-12-05 20:40:00,
2013-12-05 15:43:00,64.7,55.9,29.88,SSE,155,1.0,4.0,73,0.00,,---,0.00,VWS V14.01,2013-12-05 20:43:00,
2013-12-05 15:45:00,64.7,55.9,29.88,SSE,155,0.0,4.0,73,0.00,,---,0.00,VWS V14.01,2013-12-05 20:45:00,
2013-12-05 15:48:00,64.5,55.7,29.88,SSE,168,1.0,5.0,73,0.00,,---,0.00,VWS V14.01,2013-12-05 20:48:00,
2013-12-05 15:50:00,64.5,55.7,29.88,SSE,168,0.0,5.0,73,0.00,,---,0.00,VWS V14.01,2013-12-05 20:50:00,
2013-12-05 15:54:00,64.3,55.8,29.89,SSE,159,1.0,4.0,74,0.00,,---,0.00,VWS V14.01,2013-12-05 20:54:00,
2013-12-05 15:55:00,64.3,55.8,29.89,SE,143,2.0,4.0,74,0.00,,---,0.00,VWS V14.01,2013-12-05 20:55:00,
2013-12-05 15:59:00,64.0,55.6,29.89,SE,145,6.0,6.0,74,0.00,,---,0.00,VWS V14.01,2013-12-05 20:59:00,
2013-12-05 16:00:00,64.0,55.6,29.89,ESE,113,2.0,6.0,74,0.00,,---,0.00,VWS V14.01,2013-12-05 21:00:00,
2013-12-05 16:04:00,63.9,55.8,29.89,SSE,150,5.0,8.0,75,0.00,,---,0.00,VWS V14.01,2013-12-05 21:04:00,
2013-12-05 16:05:00,63.9,55.8,29.89,SSE,147,3.0,8.0,75,0.00,,---,0.00,VWS V14.01,2013-12-05 21:05:00,
2013-12-05 16:09:00,63.5,55.4,29.88,ESE,109,3.0,4.0,75,0.00,,---,0.00,VWS V14.01,2013-12-05 21:09:00,
2013-12-05 16:10:00,63.5,55.4,29.88,SE,134,5.0,5.0,75,0.00,,---,0.00,VWS V14.01,2013-12-05 21:10:00,
2013-12-05 16:14:00,63.4,55.7,29.88,SSE,154,4.0,6.0,76,0.00,,---,0.00,VWS V14.01,2013-12-05 21:14:00,
2013-12-05 16:15:00,63.4,55.7,29.88,SE,137,5.0,6.0,76,0.00,,---,0.00,VWS V14.01,2013-12-05 21:15:00,
2013-12-05 16:19:00,63.2,55.5,29.88,South,171,3.0,8.0,76,0.00,,---,0.00,VWS V14.01,2013-12-05 21:19:00,
2013-12-05 16:20:00,63.2,55.5,29.88,SE,144,6.0,8.0,76,0.00,,---,0.00,VWS V14.01,2013-12-05 21:20:00,
2013-12-05 16:24:00,63.1,55.8,29.89,ESE,121,4.0,7.0,77,0.00,,---,0.00,VWS V14.01,2013-12-05 21:24:00,
2013-12-05 16:25:00,63.1,55.8,29.89,SSE,168,3.0,7.0,77,0.00,,---,0.00,VWS V14.01,2013-12-05 21:25:00,
2013-12-05 16:29:00,63.1,55.8,29.88,South,182,5.0,7.0,77,0.00,,---,0.00,VWS V14.01,2013-12-05 21:29:00,
2013-12-05 16:30:00,62.9,55.6,29.88,SSE,153,6.0,7.0,77,0.00,,---,0.00,VWS V14.01,2013-12-05 21:30:00,
2013-12-05 16:34:00,62.9,55.9,29.89,ESE,121,4.0,7.0,78,0.00,,---,0.00,VWS V14.01,2013-12-05 21:34:00,
2013-12-05 16:35:00,62.9,55.9,29.89,SE,134,4.0,7.0,78,0.00,,---,0.00,VWS V14.01,2013-12-05 21:35:00,
2013-12-05 16:39:00,62.7,55.8,29.89,SE,142,1.0,5.0,78,0.00,,---,0.00,VWS V14.01,2013-12-05 21:39:00,
2013-12-05 16:40:00,62.7,55.8,29.89,SE,142,2.0,5.0,78,0.00,,---,0.00,VWS V14.01,2013-12-05 21:40:00,
2013-12-05 16:44:00,62.6,55.7,29.89,SSE,152,5.0,6.0,78,0.00,,---,0.00,VWS V14.01,2013-12-05 21:44:00,
2013-12-05 16:45:00,62.6,56.0,29.89,SSE,152,3.0,6.0,79,0.00,,---,0.00,VWS V14.01,2013-12-05 21:45:00,
2013-12-05 16:49:00,62.4,55.8,29.89,South,180,2.0,4.0,79,0.00,,---,0.00,VWS V14.01,2013-12-05 21:49:00,
2013-12-05 16:50:00,62.4,55.8,29.89,SSE,163,3.0,4.0,79,0.00,,---,0.00,VWS V14.01,2013-12-05 21:50:00,
2013-12-05 16:54:00,62.1,55.5,29.89,South,187,1.0,5.0,79,0.00,,---,0.00,VWS V14.01,2013-12-05 21:54:00,
2013-12-05 16:55:00,62.1,55.5,29.89,South,187,2.0,5.0,79,0.00,,---,0.00,VWS V14.01,2013-12-05 21:55:00,
2013-12-05 16:59:00,62.0,55.8,29.89,SE,146,2.0,5.0,80,0.00,,---,0.00,VWS V14.01,2013-12-05 21:59:00,
2013-12-05 17:00:00,62.0,55.8,29.89,SE,146,2.0,5.0,80,0.00,,---,0.00,VWS V14.01,2013-12-05 22:00:00,
2013-12-05 17:04:00,61.8,55.6,29.89,SE,129,1.0,4.0,80,0.00,,---,0.00,VWS V14.01,2013-12-05 22:04:00,
2013-12-05 17:05:00,61.8,55.6,29.89,SE,129,2.0,4.0,80,0.00,,---,0.00,VWS V14.01,2013-12-05 22:05:00,
2013-12-05 17:09:00,61.6,55.7,29.89,South,172,3.0,5.0,81,0.00,,---,0.00,VWS V14.01,2013-12-05 22:09:00,
2013-12-05 17:10:00,61.6,55.7,29.89,SSE,148,2.0,5.0,81,0.00,,---,0.00,VWS V14.01,2013-12-05 22:10:00,
2013-12-05 17:14:00,61.5,56.0,29.90,SSE,151,2.0,4.0,82,0.00,,---,0.00,VWS V14.01,2013-12-05 22:14:00,
2013-12-05 17:15:00,61.5,56.0,29.90,SSE,151,2.0,4.0,82,0.00,,---,0.00,VWS V14.01,2013-12-05 22:15:00,
2013-12-05 17:19:00,61.3,55.8,29.90,South,171,1.0,5.0,82,0.00,,---,0.00,VWS V14.01,2013-12-05 22:19:00,
2013-12-05 17:20:00,61.3,55.8,29.90,South,171,1.0,5.0,82,0.00,,---,0.00,VWS V14.01,2013-12-05 22:20:00,
2013-12-05 17:24:00,61.2,55.7,29.89,SE,136,0.0,4.0,82,0.00,,---,0.00,VWS V14.01,2013-12-05 22:24:00,
2013-12-05 17:25:00,61.2,55.7,29.89,SE,136,0.0,4.0,82,0.00,,---,0.00,VWS V14.01,2013-12-05 22:25:00,
2013-12-05 17:29:00,60.9,55.7,29.89,SSE,155,1.0,4.0,83,0.00,,---,0.00,VWS V14.01,2013-12-05 22:29:00,
2013-12-05 17:30:00,60.9,55.7,29.89,SSE,155,4.0,5.0,83,0.00,,---,0.00,VWS V14.01,2013-12-05 22:30:00,
2013-12-05 17:34:00,60.7,55.5,29.90,South,189,4.0,5.0,83,0.00,,---,0.00,VWS V14.01,2013-12-05 22:34:00,
2013-12-05 17:35:00,60.7,55.5,29.90,South,188,5.0,5.0,83,0.00,,---,0.00,VWS V14.01,2013-12-05 22:35:00,
2013-12-05 17:39:00,60.5,55.7,29.90,SSE,162,3.0,4.0,84,0.00,,---,0.00,VWS V14.01,2013-12-05 22:39:00,
2013-12-05 17:40:00,60.5,55.7,29.90,SSW,192,4.0,5.0,84,0.00,,---,0.00,VWS V14.01,2013-12-05 22:40:00,
2013-12-05 17:45:00,60.4,55.5,29.90,South,188,3.0,3.0,84,0.00,,---,0.00,VWS V14.01,2013-12-05 22:45:00,
2013-12-05 17:50:00,60.2,55.7,29.90,South,177,2.0,2.0,85,0.00,,---,0.00,VWS V14.01,2013-12-05 22:50:00,
2013-12-05 17:55:00,60.1,55.6,29.90,South,188,1.0,2.0,85,0.00,,---,0.00,VWS V14.01,2013-12-05 22:55:00,
2013-12-05 18:00:00,59.9,55.7,29.90,South,170,4.0,4.0,86,0.00,,---,0.00,VWS V14.01,2013-12-05 23:00:00,
2013-12-05 18:05:00,59.9,56.0,29.90,South,189,4.0,4.0,87,0.00,,---,0.00,VWS V14.01,2013-12-05 23:05:00,
2013-12-05 18:10:00,59.9,56.0,29.90,South,184,6.0,6.0,87,0.00,,---,0.00,VWS V14.01,2013-12-05 23:10:00,
2013-12-05 18:15:00,59.9,56.0,29.90,South,176,2.0,4.0,87,0.00,,---,0.00,VWS V14.01,2013-12-05 23:15:00,
2013-12-05 18:20:00,59.9,56.0,29.90,South,184,2.0,4.0,87,0.00,,---,0.00,VWS V14.01,2013-12-05 23:20:00,
2013-12-05 18:25:00,59.9,56.0,29.90,SSW,193,3.0,3.0,87,0.00,,---,0.00,VWS V14.01,2013-12-05 23:25:00,
2013-12-05 18:30:00,59.8,55.9,29.90,SW,229,0.0,1.0,87,0.00,,---,0.00,VWS V14.01,2013-12-05 23:30:00,
2013-12-05 18:35:00,59.6,55.7,29.90,SW,227,1.0,2.0,87,0.00,,---,0.00,VWS V14.01,2013-12-05 23:35:00,
2013-12-05 18:40:00,59.5,55.6,29.90,SW,227,2.0,2.0,87,0.00,,---,0.00,VWS V14.01,2013-12-05 23:40:00,
2013-12-05 18:45:00,59.3,55.4,29.90,SSW,204,1.0,1.0,87,0.00,,---,0.00,VWS V14.01,2013-12-05 23:45:00,
2013-12-05 18:50:00,59.2,55.3,29.91,SSW,202,2.0,2.0,87,0.00,,---,0.00,VWS V14.01,2013-12-05 23:50:00,
2013-12-05 18:55:00,59.0,55.5,29.91,SSW,202,0.0,2.0,88,0.00,,---,0.00,VWS V14.01,2013-12-05 23:55:00,
2013-12-05 19:00:00,58.9,55.4,29.91,SSW,200,1.0,2.0,88,0.00,,---,0.00,VWS V14.01,2013-12-06 00:00:00,
2013-12-05 19:05:00,58.7,55.5,29.91,SSW,200,1.0,1.0,89,0.00,,---,0.00,VWS V14.01,2013-12-06 00:05:00,
2013-12-05 19:10:00,58.6,55.4,29.90,SSW,200,0.0,0.0,89,0.00,,---,0.00,VWS V14.01,2013-12-06 00:10:00,
2013-12-05 19:15:00,58.4,55.5,29.90,SSW,200,0.0,0.0,90,0.00,,---,0.00,VWS V14.01,2013-12-06 00:15:00,
2013-12-05 19:20:00,58.4,55.5,29.91,SSE,167,0.0,0.0,90,0.00,,---,0.00,VWS V14.01,2013-12-06 00:20:00,
2013-12-05 19:25:00,58.3,55.7,29.91,SSE,167,0.0,1.0,91,0.00,,---,0.00,VWS V14.01,2013-12-06 00:25:00,
2013-12-05 19:30:00,58.3,55.7,29.91,SSE,167,2.0,2.0,91,0.00,,---,0.00,VWS V14.01,2013-12-06 00:30:00,
2013-12-05 19:35:00,58.1,55.5,29.91,SSE,167,0.0,0.0,91,0.00,,---,0.00,VWS V14.01,2013-12-06 00:35:00,
2013-12-05 19:40:00,58.0,55.4,29.91,SSE,167,0.0,0.0,91,0.00,,---,0.00,VWS V14.01,2013-12-06 00:40:00,
2013-12-05 19:45:00,58.0,55.7,29.91,SSE,167,0.0,0.0,92,0.00,,---,0.00,VWS V14.01,2013-12-06 00:45:00,
2013-12-05 19:50:00,58.0,56.0,29.91,SSE,167,0.0,0.0,93,0.00,,---,0.00,VWS V14.01,2013-12-06 00:50:00,
2013-12-05 19:51:00,58.0,56.0,29.91,SSE,167,0.0,0.0,93,0.00,,---,0.00,VWS V14.01,2013-12-06 00:51:00,
2013-12-05 19:55:00,58.0,56.3,29.90,SSE,167,0.0,0.0,94,0.00,,---,0.00,VWS V14.01,2013-12-06 00:55:00,
2013-12-05 19:56:00,58.0,56.3,29.90,SSE,167,0.0,0.0,94,0.00,,---,0.00,VWS V14.01,2013-12-06 00:56:00,
2013-12-05 20:00:00,58.0,56.3,29.90,SSE,167,0.0,0.0,94,0.00,,---,0.00,VWS V14.01,2013-12-06 01:00:00,
2013-12-05 20:01:00,58.0,56.3,29.89,SSE,167,0.0,0.0,94,0.00,,---,0.00,VWS V14.01,2013-12-06 01:01:00,
2013-12-05 20:05:00,58.0,56.6,29.90,SSE,167,0.0,0.0,95,0.00,,---,0.00,VWS V14.01,2013-12-06 01:05:00,
2013-12-05 20:06:00,58.0,56.6,29.90,SSE,167,0.0,0.0,95,0.00,,---,0.00,VWS V14.01,2013-12-06 01:06:00,
2013-12-05 20:10:00,57.8,56.4,29.90,SSE,167,0.0,0.0,95,0.00,,---,0.00,VWS V14.01,2013-12-06 01:10:00,
2013-12-05 20:11:00,57.8,56.4,29.90,SSE,167,0.0,0.0,95,0.00,,---,0.00,VWS V14.01,2013-12-06 01:11:00,
2013-12-05 20:15:00,57.6,56.2,29.90,SSE,167,0.0,0.0,95,0.00,,---,0.00,VWS V14.01,2013-12-06 01:15:00,
2013-12-05 20:16:00,57.5,56.1,29.90,SSE,167,0.0,0.0,95,0.00,,---,0.00,VWS V14.01,2013-12-06 01:16:00,
2013-12-05 20:20:00,57.3,55.9,29.90,SSE,167,0.0,1.0,95,0.00,,---,0.00,VWS V14.01,2013-12-06 01:20:00,
2013-12-05 20:21:00,57.3,55.9,29.91,SSE,167,0.0,0.0,95,0.00,,---,0.00,VWS V14.01,2013-12-06 01:21:00,
2013-12-05 20:25:00,57.2,55.8,29.91,SSE,167,0.0,1.0,95,0.00,,---,0.00,VWS V14.01,2013-12-06 01:25:00,
2013-12-05 20:26:00,57.2,55.8,29.91,SSE,167,0.0,0.0,95,0.00,,---,0.00,VWS V14.01,2013-12-06 01:26:00,
2013-12-05 20:30:00,57.2,55.8,29.91,SSE,167,0.0,1.0,95,0.00,,---,0.00,VWS V14.01,2013-12-06 01:30:00,
2013-12-05 20:31:00,57.0,55.6,29.91,SSE,167,0.0,0.0,95,0.00,,---,0.00,VWS V14.01,2013-12-06 01:31:00,
2013-12-05 20:35:00,57.0,55.6,29.91,SSE,167,0.0,0.0,95,0.00,,---,0.00,VWS V14.01,2013-12-06 01:35:00,
2013-12-05 20:36:00,57.0,55.9,29.90,SSE,167,0.0,0.0,96,0.00,,---,0.00,VWS V14.01,2013-12-06 01:36:00,
2013-12-05 20:40:00,57.0,55.9,29.90,SSE,167,0.0,0.0,96,0.00,,---,0.00,VWS V14.01,2013-12-06 01:40:00,
2013-12-05 20:41:00,57.0,55.9,29.90,SSE,167,0.0,0.0,96,0.00,,---,0.00,VWS V14.01,2013-12-06 01:41:00,
2013-12-05 20:45:00,57.0,55.9,29.90,SSE,167,0.0,0.0,96,0.00,,---,0.00,VWS V14.01,2013-12-06 01:45:00,
2013-12-05 20:46:00,57.0,55.9,29.90,SSE,167,0.0,0.0,96,0.00,,---,0.00,VWS V14.01,2013-12-06 01:46:00,
2013-12-05 20:50:00,57.0,56.2,29.90,SSE,167,0.0,1.0,97,0.00,,---,0.00,VWS V14.01,2013-12-06 01:50:00,
2013-12-05 20:51:00,57.0,56.2,29.89,SW,217,1.0,3.0,97,0.00,,---,0.00,VWS V14.01,2013-12-06 01:51:00,
2013-12-05 20:55:00,57.0,56.2,29.89,SW,217,1.0,3.0,97,0.00,,---,0.00,VWS V14.01,2013-12-06 01:55:00,
2013-12-05 20:56:00,56.9,56.1,29.89,SW,217,1.0,2.0,97,0.00,,---,0.00,VWS V14.01,2013-12-06 01:56:00,
2013-12-05 21:00:00,56.9,56.1,29.89,SSW,211,0.0,2.0,97,0.00,,---,0.00,VWS V14.01,2013-12-06 02:00:00,
2013-12-05 21:01:00,56.9,56.1,29.89,SSW,211,0.0,1.0,97,0.00,,---,0.00,VWS V14.01,2013-12-06 02:01:00,
2013-12-05 21:05:00,56.9,56.1,29.89,South,191,0.0,2.0,97,0.00,,---,0.00,VWS V14.01,2013-12-06 02:05:00,
2013-12-05 21:06:00,56.9,56.1,29.88,SW,222,1.0,3.0,97,0.00,,---,0.00,VWS V14.01,2013-12-06 02:06:00,
2013-12-05 21:10:00,56.7,55.9,29.88,SW,222,1.0,3.0,97,0.00,,---,0.00,VWS V14.01,2013-12-06 02:10:00,
2013-12-05 21:11:00,56.7,55.9,29.88,SW,222,0.0,1.0,97,0.00,,---,0.00,VWS V14.01,2013-12-06 02:11:00,
2013-12-05 21:15:00,56.7,55.9,29.88,SW,221,1.0,2.0,97,0.00,,---,0.00,VWS V14.01,2013-12-06 02:15:00,
2013-12-05 21:16:00,56.7,55.9,29.88,SW,221,0.0,2.0,97,0.00,,---,0.00,VWS V14.01,2013-12-06 02:16:00,
2013-12-05 21:20:00,56.7,55.9,29.89,SW,221,0.0,2.0,97,0.00,,---,0.00,VWS V14.01,2013-12-06 02:20:00,
2013-12-05 21:21:00,56.7,55.9,29.88,SSE,165,4.0,5.0,97,0.00,,---,0.00,VWS V14.01,2013-12-06 02:21:00,
2013-12-05 21:25:00,56.9,56.1,29.88,SSW,194,0.0,5.0,97,0.00,,---,0.00,VWS V14.01,2013-12-06 02:25:00,
2013-12-05 21:26:00,57.0,56.2,29.88,SSW,194,1.0,2.0,97,0.00,,---,0.00,VWS V14.01,2013-12-06 02:26:00,
2013-12-05 21:30:00,57.0,56.4,29.88,SE,143,0.0,3.0,98,0.00,,---,0.00,VWS V14.01,2013-12-06 02:30:00,
2013-12-05 21:31:00,57.0,56.4,29.88,SE,129,2.0,3.0,98,0.00,,---,0.00,VWS V14.01,2013-12-06 02:31:00,
2013-12-05 21:35:00,57.2,56.6,29.89,SE,129,2.0,3.0,98,0.00,,---,0.00,VWS V14.01,2013-12-06 02:35:00,
2013-12-05 21:36:00,57.2,56.6,29.89,ESE,111,1.0,3.0,98,0.00,,---,0.00,VWS V14.01,2013-12-06 02:36:00,
2013-12-05 21:40:00,57.3,56.7,29.88,ESE,112,0.0,3.0,98,0.00,,---,0.00,VWS V14.01,2013-12-06 02:40:00,
2013-12-05 21:41:00,57.3,56.7,29.88,ESE,112,1.0,1.0,98,0.00,,---,0.00,VWS V14.01,2013-12-06 02:41:00,
2013-12-05 21:45:00,57.3,56.7,29.88,SSE,164,1.0,3.0,98,0.00,,---,0.00,VWS V14.01,2013-12-06 02:45:00,
2013-12-05 21:47:00,57.3,56.7,29.88,SSE,164,1.0,2.0,98,0.00,,---,0.00,VWS V14.01,2013-12-06 02:47:00,
2013-12-05 21:50:00,57.2,56.6,29.88,SSE,164,0.0,2.0,98,0.00,,---,0.00,VWS V14.01,2013-12-06 02:50:00,
2013-12-05 21:52:00,57.2,56.6,29.88,SSE,164,0.0,0.0,98,0.00,,---,0.00,VWS V14.01,2013-12-06 02:52:00,
2013-12-05 21:55:00,57.0,56.2,29.88,SSE,164,0.0,2.0,97,0.00,,---,0.00,VWS V14.01,2013-12-06 02:55:00,
2013-12-05 21:57:00,57.0,56.2,29.88,SSE,164,0.0,1.0,97,0.00,,---,0.00,VWS V14.01,2013-12-06 02:57:00,
2013-12-05 22:00:00,56.9,56.1,29.88,SSE,164,0.0,1.0,97,0.00,,---,0.00,VWS V14.01,2013-12-06 03:00:00,
2013-12-05 22:02:00,56.7,55.9,29.88,SSE,164,0.0,0.0,97,0.00,,---,0.00,VWS V14.01,2013-12-06 03:02:00,
2013-12-05 22:05:00,56.7,55.9,29.88,SSE,164,0.0,0.0,97,0.00,,---,0.00,VWS V14.01,2013-12-06 03:05:00,
2013-12-05 22:07:00,56.6,55.8,29.88,SSE,164,0.0,0.0,97,0.00,,---,0.00,VWS V14.01,2013-12-06 03:07:00,
2013-12-05 22:10:00,56.5,55.7,29.88,SSE,164,0.0,1.0,97,0.00,,---,0.00,VWS V14.01,2013-12-06 03:10:00,
2013-12-05 22:12:00,56.5,55.7,29.88,SSE,164,1.0,1.0,97,0.00,,---,0.00,VWS V14.01,2013-12-06 03:12:00,
2013-12-05 22:15:00,56.3,55.5,29.88,SSE,164,0.0,2.0,97,0.00,,---,0.00,VWS V14.01,2013-12-06 03:15:00,
2013-12-05 22:17:00,56.3,55.5,29.89,SSW,192,0.0,3.0,97,0.00,,---,0.00,VWS V14.01,2013-12-06 03:17:00,
2013-12-05 22:20:00,56.2,55.4,29.88,SSW,193,1.0,3.0,97,0.00,,---,0.00,VWS V14.01,2013-12-06 03:20:00,
2013-12-05 22:22:00,56.2,55.4,29.88,SW,232,4.0,4.0,97,0.00,,---,0.00,VWS V14.01,2013-12-06 03:22:00,
2013-12-05 22:25:00,56.2,55.4,29.88,SW,232,0.0,4.0,97,0.00,,---,0.00,VWS V14.01,2013-12-06 03:25:00,
2013-12-05 22:27:00,56.2,55.4,29.88,SW,232,1.0,3.0,97,0.00,,---,0.00,VWS V14.01,2013-12-06 03:27:00,
2013-12-05 22:30:00,56.2,55.4,29.88,SW,232,0.0,3.0,97,0.00,,---,0.00,VWS V14.01,2013-12-06 03:30:00,
2013-12-05 22:32:00,56.2,55.4,29.87,SW,225,2.0,3.0,97,0.00,,---,0.00,VWS V14.01,2013-12-06 03:32:00,
2013-12-05 22:35:00,56.2,55.7,29.87,SW,221,0.0,3.0,98,0.00,,---,0.00,VWS V14.01,2013-12-06 03:35:00,
2013-12-05 22:37:00,56.2,55.7,29.88,SW,221,0.0,2.0,98,0.00,,---,0.00,VWS V14.01,2013-12-06 03:37:00,
2013-12-05 22:40:00,56.3,55.7,29.88,West,259,0.0,3.0,98,0.00,,---,0.00,VWS V14.01,2013-12-06 03:40:00,
2013-12-05 22:42:00,56.3,55.8,29.88,WSW,244,2.0,2.0,98,0.00,,---,0.00,VWS V14.01,2013-12-06 03:42:00,
2013-12-05 22:45:00,56.5,55.9,29.88,SW,227,0.0,4.0,98,0.00,,---,0.00,VWS V14.01,2013-12-06 03:45:00,
2013-12-05 22:47:00,56.5,55.9,29.88,SSW,207,1.0,5.0,98,0.00,,---,0.00,VWS V14.01,2013-12-06 03:47:00,
2013-12-05 22:50:00,56.6,56.0,29.88,WSW,242,2.0,5.0,98,0.00,,---,0.00,VWS V14.01,2013-12-06 03:50:00,
2013-12-05 22:52:00,56.7,56.1,29.87,SW,232,0.0,3.0,98,0.00,,---,0.00,VWS V14.01,2013-12-06 03:52:00,
2013-12-05 22:55:00,56.7,56.1,29.87,SW,222,2.0,5.0,98,0.00,,---,0.00,VWS V14.01,2013-12-06 03:55:00,
2013-12-05 22:57:00,56.9,56.3,29.88,SSW,205,1.0,5.0,98,0.00,,---,0.00,VWS V14.01,2013-12-06 03:57:00,
2013-12-05 23:00:00,57.0,56.7,29.88,SSW,205,2.0,5.0,99,0.00,,---,0.00,VWS V14.01,2013-12-06 04:00:00,
2013-12-05 23:02:00,57.2,56.9,29.88,WSW,243,4.0,5.0,99,0.00,,---,0.00,VWS V14.01,2013-12-06 04:02:00,
2013-12-05 23:05:00,57.3,57.0,29.88,SW,227,2.0,5.0,99,0.00,,---,0.00,VWS V14.01,2013-12-06 04:05:00,
2013-12-05 23:07:00,57.5,57.2,29.87,SW,218,2.0,4.0,99,0.00,,---,0.00,VWS V14.01,2013-12-06 04:07:00,
2013-12-05 23:10:00,57.6,57.3,29.87,SSW,200,6.0,6.0,99,0.00,,---,0.00,VWS V14.01,2013-12-06 04:10:00,
2013-12-05 23:12:00,57.8,57.5,29.87,SW,225,1.0,6.0,99,0.00,,---,0.00,VWS V14.01,2013-12-06 04:12:00,
2013-12-05 23:15:00,57.8,57.5,29.87,SW,223,0.0,6.0,99,0.00,,---,0.00,VWS V14.01,2013-12-06 04:15:00,
2013-12-05 23:17:00,57.8,57.2,29.87,South,171,2.0,3.0,98,0.00,,---,0.00,VWS V14.01,2013-12-06 04:17:00,
2013-12-05 23:20:00,57.8,57.2,29.86,SE,142,2.0,3.0,98,0.00,,---,0.00,VWS V14.01,2013-12-06 04:20:00,
2013-12-05 23:22:00,57.8,57.2,29.87,SE,142,1.0,2.0,98,0.00,,---,0.00,VWS V14.01,2013-12-06 04:22:00,
2013-12-05 23:25:00,57.8,57.2,29.87,SE,142,0.0,2.0,98,0.00,,---,0.00,VWS V14.01,2013-12-06 04:25:00,
2013-12-05 23:27:00,57.8,57.2,29.87,SE,142,1.0,2.0,98,0.00,,---,0.00,VWS V14.01,2013-12-06 04:27:00,
2013-12-05 23:30:00,57.8,57.2,29.87,SSE,161,0.0,2.0,98,0.00,,---,0.00,VWS V14.01,2013-12-06 04:30:00,
2013-12-05 23:32:00,57.8,57.2,29.87,South,171,0.0,2.0,98,0.00,,---,0.00,VWS V14.01,2013-12-06 04:32:00,
2013-12-05 23:35:00,57.8,57.2,29.86,South,171,1.0,2.0,98,0.00,,---,0.00,VWS V14.01,2013-12-06 04:35:00,
2013-12-05 23:37:00,57.8,57.2,29.86,South,171,2.0,2.0,98,0.00,,---,0.00,VWS V14.01,2013-12-06 04:37:00,
2013-12-05 23:40:00,57.8,57.2,29.87,SSW,212,0.0,3.0,98,0.00,,---,0.00,VWS V14.01,2013-12-06 04:40:00,
2013-12-05 23:42:00,57.6,57.0,29.87,SSW,212,0.0,2.0,98,0.00,,---,0.00,VWS V14.01,2013-12-06 04:42:00,
2013-12-05 23:45:00,57.6,57.0,29.87,SSW,212,0.0,2.0,98,0.00,,---,0.00,VWS V14.01,2013-12-06 04:45:00,
2013-12-05 23:47:00,57.6,57.0,29.86,South,190,1.0,2.0,98,0.00,,---,0.00,VWS V14.01,2013-12-06 04:47:00,
2013-12-05 23:50:00,57.6,57.0,29.87,SSW,200,1.0,3.0,98,0.00,,---,0.00,VWS V14.01,2013-12-06 04:50:00,
2013-12-05 23:52:00,57.6,57.0,29.87,SSW,206,0.0,4.0,98,0.00,,---,0.00,VWS V14.01,2013-12-06 04:52:00,
2013-12-05 23:55:00,57.6,57.0,29.87,SSW,206,0.0,4.0,98,0.00,,---,0.00,VWS V14.01,2013-12-06 04:55:00,
2013-12-05 23:57:00,57.6,57.0,29.87,SW,219,0.0,3.0,98,0.00,,---,0.00,VWS V14.01,2013-12-06 04:57:00,